Aviation Digital Data Service (ADDS)

Output produced by TAFs form (0224 UTC 21 November 2017)
found at http://www.aviationweather.gov/adds/tafs/
 
METAR text: RJKA 210200Z 06011KT 9999 FEW040 BKN150 20/10 Q1022
Conditions at: RJKA (AMAMI AIRPORT , JP) observed 0200 UTC 21 November 2017
Temperature: 20.0°C (68°F)
Dewpoint: 10.0°C (50°F) [RH = 53%]
Pressure (altimeter): 30.18 inches Hg (1022.0 mb)
Winds: from the ENE (60 degrees) at 13 MPH (11 knots; 5.7 m/s)
Visibility: 6 or more miles (10+ km)
Ceiling: 15000 feet AGL
Clouds: few clouds at 4000 feet AGL
broken clouds at 15000 feet AGL
Weather: no significant weather observed at this time